• Join FlightAware (Why Join?)
  • Login
  • US Flag 
Rudolph Flight #1: Arrived! 
06:34AM EST


 

Airport Tracker/Info


-or-


 

Live Flight TrackerFlight Track Log ✈ N57HC ✈ 07-Nov-2013 ✈ KBWI - KBED

Flight Track Log - Related Links

Times and Time Zones

All times are in EST time to prevent confusion due to time zone crossing. See the N57HC flight status page for this flight to view local times or setup timezone preferences in your user account.

Time Position Orientation Groundspeed Altitude Reporting Facility
EST Latitude Longitude Course Direction KTS MPH feet Rate Location/Type
04:05PM 39.2022 -76.6869 228° Southwest 169 194 1,100  Level Washington Center
04:06PM 39.1706 -76.7322 228° Southwest 174 200 4,400 3,240 Climbing Washington Center
04:07PM 39.1317 -76.6592 124° Southeast 109 125 7,700 3,000 Climbing Washington Center
04:08PM 39.1367 -76.5550 86° East 174 200 10,400 2,520 Climbing Washington Center
04:09PM 39.1417 -76.4453 87° East 244 281 12,800 2,520 Climbing Washington Center
04:10PM 39.1467 -76.3275 87° East 290 334 15,500 2,100 Climbing Washington Center
04:11PM 39.1536 -76.1992 86° East 328 377 17,000 900 Climbing Washington Center
04:12PM 39.1731 -76.0547 80° East 371 427 17,300 960 Climbing Washington Center
04:13PM 39.1900 -75.9075 82° East 402 463 19,000 840 Climbing Washington Center
04:14PM 39.2611 -75.7792 54° Northeast 412 474 19,100 900 Climbing Washington Center
04:15PM 39.3508 -75.6747 42° Northeast 417 480 20,900 900 Climbing Washington Center
04:16PM 39.4428 -75.5567 45° Northeast 434 499 21,000  Climbing Washington Center
04:17PM 39.5342 -75.4381 45° Northeast 450 518 21,000 540 Level Washington Center
04:18PM 39.6258 -75.3222 44° Northeast 457 526 22,100 1,080 Climbing Washington Center
04:19PM 39.7108 -75.2031 47° Northeast 457 526 23,200 900 Climbing Washington Center
04:20PM 39.7875 -75.0919 48° Northeast 457 526 24,000 360 Climbing Washington Center
04:21PM 39.8869 -74.9533 47° Northeast 462 532 24,000  Level Washington Center
04:27PM 40.3900 -74.2040 47° Northeast 100 115 24,000  Level FlightAware
04:28PM 40.4110 -74.1640 55° Northeast 471 542 24,000  Level FlightAware
04:28PM 40.4450 -74.1000 55° Northeast 510 587 24,000 -180 Level FlightAware
04:29PM 40.5050 -73.9520 62° Northeast 492 566 23,800 -300 Descending FlightAware
04:29PM 40.5400 -73.8650 62° Northeast 585 673 23,600 -360 Descending FlightAware
04:30PM 40.6070 -73.7210 58° Northeast 463 533 23,300 -300 Descending FlightAware
04:31PM 40.6350 -73.6600 59° Northeast 461 531 23,200 -120 Descending FlightAware
04:31PM 40.6610 -73.6000 60° Northeast 461 531 23,200  Level FlightAware
04:32PM 40.7170 -73.4740 60° Northeast 461 531 23,200 -120 Level FlightAware
04:33PM 40.7970 -73.3020 58° Northeast 461 531 23,000 -120 Descending FlightAware
04:34PM 40.8700 -73.1860 50° Northeast 461 531 23,000  Level FlightAware
04:35PM 40.9260 -73.0980 50° Northeast 461 531 23,000  Level FlightAware
04:36PM 40.9560 -73.0500 50° Northeast 461 531 23,000  Level FlightAware
04:36PM 40.9980 -72.9840 50° Northeast 461 531 23,000  Level FlightAware
04:37PM 41.0690 -72.8710 50° Northeast 461 531 23,000 -2,700 Level FlightAware
04:38PM 41.3197 -72.6914 50° Northeast 447 514 17,200 -3,900 Descending Boston Center
04:39PM 41.4267 -72.6414 19° North 408 470 14,600 -2,640 Descending Boston Center
04:40PM 41.5267 -72.5986 18° North 347 399 11,900 -1,680 Descending Boston Center
04:41PM 41.6122 -72.5622 18° North 324 373 11,100 -480 Descending Boston Center
04:42PM 41.6736 -72.5189 28° Northeast 365 420 11,100  Level Boston Center
04:42PM 41.6944 -72.4947 41° Northeast 360 414 11,100  Level Boston Center
04:43PM 41.7406 -72.4417 41° Northeast 365 420 11,100 -120 Level Boston Center
04:43PM 41.7764 -72.4011 40° Northeast 360 414 11,000 -120 Descending Boston Center
04:44PM 41.8189 -72.3514 41° Northeast 352 405 11,000 60 Level Boston Center
04:44PM 41.8506 -72.3175 39° Northeast 352 405 11,100  Climbing Boston Center
04:45PM 41.8847 -72.2794 40° Northeast 351 404 11,000 -840 Descending Boston Center
04:45PM 41.9244 -72.2339 40° Northeast 350 403 10,300 -1,200 Descending Boston Center
04:46PM 41.9517 -72.2019 41° Northeast 346 398 9,900 -1,380 Descending Boston Center
04:47PM 41.9997 -72.1475 40° Northeast 329 379 8,900 -1,200 Descending Boston Center
04:47PM 42.0314 -72.1028 46° Northeast 311 358 8,400 -1,200 Descending Boston Center
04:48PM 42.0511 -72.0547 61° Northeast 314 361 7,700 -1,200 Descending Boston Center
04:48PM 42.0786 -71.9922 59° Northeast 315 362 7,100 -1,020 Descending Boston Center
04:49PM 42.1025 -71.9631 42° Northeast 304 350 6,700 -2,040 Descending Boston Center
04:49PM 42.1497 -71.9244 31° Northeast 299 344 5,200 -1,680 Descending Boston Center
04:50PM 42.1769 -71.9006 33° Northeast 295 339 5,000 -120 Descending Boston Center
04:50PM 42.2189 -71.8672 30° Northeast 292 336 5,100 -120 Climbing Boston Center
04:51PM 42.2464 -71.8425 34° Northeast 293 337 4,900 -180 Descending Boston Center
04:52PM 42.3161 -71.7814 33° Northeast 297 342 4,900  Level Boston Center
04:53PM 42.3917 -71.7217 30° Northeast 296 341 5,000  Climbing Boston Center
04:54PM 42.4486 -71.6722 33° Northeast 245 282 5,000 -120 Level Boston Center
04:55PM 42.4897 -71.6039 51° Northeast 247 284 4,800 -840 Descending Boston Center
04:55PM 42.5167 -71.5500 56° Northeast 252 290 3,700 -1,500 Descending KA90
04:56PM 42.5333 -71.4667 75° East 218 251 2,500 -900 Descending KA90
04:57PM 42.5167 -71.3833 105° East 216 249 2,000 -480 Descending KA90
04:58PM 42.5167 -71.3000 90° East 190 219 1,600 -300 Descending KA90
04:59PM 42.5000 -71.2333 109° East 156 180 1,400 -480 Descending KA90
05:00PM 42.4667 -71.2333 180° South 116 133 700 -720 Descending KA90
05:04PM 42.4699 -71.2890 275° West  Level Estimated